Terminal Aerodrome Forecast
Issued by NWS Goodland, KS

Home | Current Version | Previous Version | Text Only | Print | Product List | Glossary On
Versions: 1 2 3 4 5 6 7 8 9 10 11 12 13 14 15 16 17 18
927
FTUS43 KGLD 262324
TAFGLD
TAF
KGLD 262324Z 2700/2724 VRB06KT P6SM VCSH FEW015 OVC060
     FM270100 03005KT P6SM BKN050
     FM270300 22004KT P6SM BKN060
     FM270400 25005KT 3SM BR BKN090
     FM270900 27006KT P6SM SCT140
     FM271200 28006KT P6SM FEW250=

USA.gov is the U.S. government's official web portal to all federal, state and local government web resources and services.